createdAt,value
2023-01-01T00:01:26.555Z,79.38
2023-01-01T00:03:55.766Z,79.37
2023-01-01T00:06:23.296Z,79.95
2023-01-01T00:09:10.260Z,79.42
2023-01-01T00:11:36.904Z,79.93
2023-01-01T00:14:10.160Z,79.72
2023-01-01T00:16:39.114Z,80.06
2023-01-01T00:19:05.815Z,79.29
2023-01-01T00:21:32.465Z,79.21
2023-01-01T00:23:59.331Z,79.33
2023-01-01T00:26:29.504Z,79.62
2023-01-01T00:29:02.151Z,79.56
2023-01-01T00:31:29.013Z,80.32
2023-01-01T00:33:56.510Z,79.88
2023-01-01T00:36:25.382Z,80.63
2023-01-01T00:38:52.017Z,80.58
2023-01-01T00:41:18.793Z,80.55
2023-01-01T00:43:45.703Z,80.54
2023-01-01T00:46:12.998Z,80.13
2023-01-01T00:48:40.231Z,80.41
2023-01-01T00:51:07.514Z,80.00
2023-01-01T00:53:34.183Z,80.45
2023-01-01T00:56:00.811Z,80.17
2023-01-01T00:58:28.470Z,80.65
2023-01-01T01:00:55.272Z,80.29
2023-01-01T01:03:31.056Z,80.63
2023-01-01T01:06:11.196Z,80.01
2023-01-01T01:08:40.501Z,80.65
2023-01-01T01:11:13.158Z,80.92
2023-01-01T01:13:40.952Z,80.30
2023-01-01T01:16:12.989Z,81.04
2023-01-01T01:18:40.135Z,80.68
2023-01-01T01:21:07.023Z,80.82
2023-01-01T01:23:33.773Z,81.22
2023-01-01T01:26:30.635Z,81.71
2023-01-01T01:28:58.234Z,82.53
2023-01-01T01:31:28.034Z,81.98
2023-01-01T01:33:54.924Z,82.21
2023-01-01T01:36:21.801Z,82.34
2023-01-01T01:38:48.469Z,82.94
2023-01-01T01:41:27.252Z,83.42
2023-01-01T01:44:27.329Z,82.93
2023-01-01T01:46:54.016Z,82.72
2023-01-01T01:49:30.492Z,83.52
2023-01-01T01:51:58.893Z,82.94
2023-01-01T01:54:29.109Z,83.01
2023-01-01T01:56:59.709Z,83.00
2023-01-01T01:59:32.083Z,82.56
2023-01-01T02:01:59.645Z,82.05
2023-01-01T02:04:30.358Z,82.25
2023-01-01T02:06:57.227Z,82.41
2023-01-01T02:09:23.822Z,82.48
2023-01-01T02:11:50.403Z,82.05
2023-01-01T02:14:17.095Z,81.89
2023-01-01T02:16:53.699Z,82.28
2023-01-01T02:19:35.405Z,82.32
2023-01-01T02:22:06.840Z,82.08
2023-01-01T02:25:02.376Z,83.28
2023-01-01T02:27:44.206Z,82.86
2023-01-01T02:30:12.047Z,82.49
2023-01-01T02:32:47.237Z,83.12
2023-01-01T02:35:38.562Z,83.14
2023-01-01T02:38:11.240Z,82.95
2023-01-01T02:40:44.247Z,82.34
2023-01-01T02:43:10.980Z,82.90
2023-01-01T02:45:37.567Z,82.97
2023-01-01T02:48:28.624Z,82.75
2023-01-01T02:51:01.154Z,82.96
2023-01-01T02:53:36.001Z,82.80
2023-01-01T02:56:16.467Z,82.77
2023-01-01T02:59:14.056Z,82.97
2023-01-01T03:01:46.614Z,83.05
2023-01-01T03:04:22.783Z,82.49
2023-01-01T03:07:02.715Z,82.12
2023-01-01T03:09:29.411Z,82.54
2023-01-01T03:12:09.912Z,81.85
2023-01-01T03:14:47.241Z,82.77
2023-01-01T03:17:33.150Z,82.90
2023-01-01T03:20:05.294Z,83.68
2023-01-01T03:22:34.948Z,83.33
2023-01-01T03:25:09.193Z,83.13
2023-01-01T03:27:49.401Z,83.04
2023-01-01T03:30:19.860Z,82.57
2023-01-01T03:33:07.934Z,83.11
2023-01-01T03:35:43.880Z,83.44
2023-01-01T03:38:42.043Z,82.97
2023-01-01T03:41:37.858Z,82.84
2023-01-01T03:44:10.787Z,82.97
2023-01-01T03:46:38.023Z,82.76
2023-01-01T03:49:09.194Z,82.84
2023-01-01T03:51:47.246Z,83.68
2023-01-01T03:54:23.102Z,83.84
2023-01-01T03:56:59.321Z,83.72
2023-01-01T03:59:33.939Z,84.05
2023-01-01T04:02:04.151Z,83.61
2023-01-01T04:04:31.884Z,83.64
2023-01-01T04:07:09.350Z,83.67
2023-01-01T04:09:47.058Z,83.79
2023-01-01T04:12:15.007Z,83.86
2023-01-01T04:14:43.019Z,83.88
2023-01-01T04:17:11.725Z,83.89
2023-01-01T04:19:38.717Z,83.92
2023-01-01T04:22:09.535Z,83.74
2023-01-01T04:24:36.141Z,83.93
2023-01-01T04:27:02.728Z,83.97
2023-01-01T04:29:29.348Z,83.60
2023-01-01T04:31:55.967Z,83.79
2023-01-01T04:34:22.564Z,83.72
2023-01-01T04:36:49.149Z,83.47
2023-01-01T04:39:15.747Z,83.61
2023-01-01T04:41:42.309Z,83.56
2023-01-01T04:44:08.859Z,83.40
2023-01-01T04:46:35.462Z,83.22
2023-01-01T04:49:02.057Z,83.24
2023-01-01T04:51:28.630Z,83.28
2023-01-01T04:53:55.261Z,83.24
2023-01-01T04:56:23.151Z,83.33
2023-01-01T04:58:49.930Z,83.41
2023-01-01T05:01:20.809Z,83.73
2023-01-01T05:03:48.375Z,83.52
2023-01-01T05:06:16.143Z,83.79
2023-01-01T05:08:45.953Z,84.08
2023-01-01T05:11:21.666Z,83.67
2023-01-01T05:13:50.013Z,84.01
2023-01-01T05:16:22.573Z,84.18
2023-01-01T05:18:49.923Z,84.40
2023-01-01T05:21:19.300Z,84.65
2023-01-01T05:23:46.380Z,85.04
2023-01-01T05:26:22.326Z,85.52
2023-01-01T05:28:50.220Z,85.17
2023-01-01T05:31:20.363Z,85.12
2023-01-01T05:33:47.288Z,85.96
2023-01-01T05:36:26.991Z,86.77
2023-01-01T05:38:54.354Z,86.98
2023-01-01T05:41:21.993Z,87.00
2023-01-01T05:43:49.131Z,86.48
2023-01-01T05:46:21.846Z,86.61
2023-01-01T05:48:48.752Z,86.01
2023-01-01T05:51:23.908Z,86.02
2023-01-01T05:53:51.666Z,85.17
2023-01-01T05:56:18.706Z,85.02
2023-01-01T05:58:46.600Z,84.95
2023-01-01T06:01:17.713Z,84.89
2023-01-01T06:03:44.931Z,84.77
2023-01-01T06:06:13.889Z,84.66
2023-01-01T06:08:40.947Z,84.55
2023-01-01T06:11:11.457Z,84.96
2023-01-01T06:13:38.116Z,84.75
2023-01-01T06:16:05.229Z,85.02
2023-01-01T06:18:34.377Z,85.14
2023-01-01T06:21:14.187Z,85.73
2023-01-01T06:23:41.731Z,85.40
2023-01-01T06:26:31.107Z,85.58
2023-01-01T06:28:58.906Z,84.94
2023-01-01T06:31:26.796Z,85.60
2023-01-01T06:33:53.615Z,85.50
2023-01-01T06:36:22.947Z,85.18
2023-01-01T06:38:52.943Z,85.26
2023-01-01T06:41:22.205Z,85.94
2023-01-01T06:43:49.245Z,85.50
2023-01-01T06:46:28.154Z,85.54
2023-01-01T06:48:59.825Z,85.55
2023-01-01T06:51:29.347Z,84.78
2023-01-01T06:53:59.417Z,84.79
2023-01-01T06:56:26.258Z,84.64
2023-01-01T06:58:52.878Z,85.80
2023-01-01T07:01:22.532Z,85.89
2023-01-01T07:04:04.015Z,85.49
2023-01-01T07:06:32.709Z,85.94
2023-01-01T07:08:59.395Z,85.58
2023-01-01T07:11:26.699Z,85.35
2023-01-01T07:13:53.688Z,85.87
2023-01-01T07:16:20.543Z,85.29
2023-01-01T07:18:49.072Z,84.95
2023-01-01T07:21:34.026Z,85.94
2023-01-01T07:24:03.713Z,85.48
2023-01-01T07:26:31.584Z,85.23
2023-01-01T07:29:06.228Z,84.95
2023-01-01T07:31:37.818Z,85.27
2023-01-01T07:34:06.188Z,84.59
2023-01-01T07:36:33.204Z,85.42
2023-01-01T07:38:59.856Z,85.21
2023-01-01T07:41:26.514Z,85.13
2023-01-01T07:43:53.054Z,85.50
2023-01-01T07:46:19.862Z,85.47
2023-01-01T07:48:46.743Z,85.32
2023-01-01T07:51:13.390Z,85.21
2023-01-01T07:53:40.049Z,85.15
2023-01-01T07:56:07.389Z,85.48
2023-01-01T07:58:33.985Z,85.10
2023-01-01T08:01:00.687Z,85.16
2023-01-01T08:03:27.846Z,85.45
2023-01-01T08:05:54.445Z,85.42
2023-01-01T08:08:21.135Z,85.43
2023-01-01T08:10:47.769Z,85.44
2023-01-01T08:13:14.345Z,85.94
2023-01-01T08:15:41.039Z,85.46
2023-01-01T08:18:07.910Z,85.57
2023-01-01T08:20:34.753Z,85.63
2023-01-01T08:23:07.195Z,85.72
2023-01-01T08:25:35.057Z,85.85
2023-01-01T08:28:02.628Z,85.82
2023-01-01T08:30:29.410Z,85.58
2023-01-01T08:32:56.036Z,85.35
2023-01-01T08:35:22.624Z,84.98
2023-01-01T08:37:49.169Z,85.10
2023-01-01T08:40:16.565Z,84.85
2023-01-01T08:42:43.167Z,85.46
2023-01-01T08:45:10.325Z,85.34
2023-01-01T08:47:36.948Z,85.49
2023-01-01T08:50:04.168Z,85.09
2023-01-01T08:52:31.549Z,85.09
2023-01-01T08:54:58.182Z,85.28
2023-01-01T08:57:24.779Z,84.54
2023-01-01T08:59:51.399Z,84.07
2023-01-01T09:02:18.100Z,84.36
2023-01-01T09:04:44.901Z,84.04
2023-01-01T09:07:11.479Z,83.47
2023-01-01T09:09:38.224Z,83.79
2023-01-01T09:12:06.468Z,83.32
2023-01-01T09:14:34.207Z,83.18
2023-01-01T09:17:01.347Z,82.47
2023-01-01T09:19:28.294Z,82.20
2023-01-01T09:21:55.280Z,82.18
2023-01-01T09:24:22.100Z,81.82
2023-01-01T09:26:48.708Z,82.11
2023-01-01T09:29:18.658Z,80.76
2023-01-01T09:31:49.243Z,81.16
2023-01-01T09:34:17.830Z,80.73
2023-01-01T09:36:44.749Z,80.34
2023-01-01T09:39:15.705Z,80.57
2023-01-01T09:42:00.933Z,79.60
2023-01-01T09:44:57.304Z,78.40
2023-01-01T09:47:26.368Z,78.04
2023-01-01T09:49:56.928Z,77.26
2023-01-01T09:52:28.303Z,77.29
2023-01-01T09:55:03.182Z,76.29
2023-01-01T09:57:32.792Z,77.63
2023-01-01T10:00:00.433Z,76.68
2023-01-01T10:02:36.957Z,76.75
2023-01-01T10:05:11.269Z,75.95
2023-01-01T10:07:43.799Z,75.16
2023-01-01T10:10:14.586Z,75.34
2023-01-01T10:12:48.666Z,75.18
2023-01-01T10:15:23.535Z,75.60
2023-01-01T10:17:55.861Z,74.45
2023-01-01T10:20:55.481Z,74.11
2023-01-01T10:23:32.173Z,73.92
2023-01-01T10:26:03.432Z,73.84
2023-01-01T10:28:29.888Z,72.79
2023-01-01T10:31:15.381Z,72.31
2023-01-01T10:33:42.807Z,73.36
2023-01-01T10:36:14.147Z,71.41
2023-01-01T10:38:41.405Z,72.43
2023-01-01T10:41:17.068Z,72.12
2023-01-01T10:43:46.774Z,72.78
2023-01-01T10:46:27.608Z,71.69
2023-01-01T10:49:14.477Z,70.86
2023-01-01T10:51:52.504Z,70.88
2023-01-01T10:54:32.059Z,71.43
2023-01-01T10:57:00.054Z,71.77
2023-01-01T10:59:36.413Z,69.68
2023-01-01T11:02:17.857Z,69.48
2023-01-01T11:04:45.286Z,69.23
2023-01-01T11:07:18.249Z,69.46
2023-01-01T11:10:02.717Z,70.28
2023-01-01T11:15:42.909Z,67.74
2023-01-01T11:18:20.974Z,68.58
2023-01-01T11:20:55.584Z,68.66
2023-01-01T11:23:34.201Z,68.75
2023-01-01T11:26:18.953Z,68.21
2023-01-01T11:29:22.455Z,66.97
2023-01-01T11:31:49.451Z,67.16
2023-01-01T11:34:41.037Z,66.66
2023-01-01T11:37:33.134Z,67.07
2023-01-01T11:40:02.042Z,68.57
2023-01-01T11:42:35.547Z,67.15
2023-01-01T11:45:11.027Z,66.56
2023-01-01T11:47:43.368Z,65.00
2023-01-01T11:50:28.544Z,65.60
2023-01-01T11:53:00.340Z,65.58
2023-01-01T11:55:37.782Z,66.28
2023-01-01T11:58:19.321Z,66.69
2023-01-01T12:00:49.696Z,66.76
2023-01-01T12:03:34.680Z,64.47
2023-01-01T12:06:10.759Z,65.59
2023-01-01T12:08:41.975Z,66.17
2023-01-01T12:11:34.916Z,65.11
2023-01-01T12:14:16.953Z,64.51
2023-01-01T12:17:09.170Z,64.34
2023-01-01T12:19:47.827Z,67.62
2023-01-01T12:22:19.323Z,66.34
2023-01-01T12:24:48.236Z,66.39
2023-01-01T12:27:40.956Z,65.41
2023-01-01T12:30:18.814Z,64.80
2023-01-01T12:32:51.358Z,65.57
2023-01-01T12:35:36.676Z,66.28
2023-01-01T12:38:30.503Z,63.92
2023-01-01T12:41:13.299Z,65.67
2023-01-01T12:43:44.073Z,64.15
2023-01-01T12:46:27.796Z,62.10
2023-01-01T12:49:03.316Z,65.39
2023-01-01T12:51:45.015Z,62.07
2023-01-01T12:54:33.391Z,57.53
2023-01-01T12:57:05.941Z,62.24
2023-01-01T12:59:36.186Z,60.78
2023-01-01T13:02:14.843Z,59.40
2023-01-01T13:04:45.230Z,57.85
2023-01-01T13:07:13.237Z,61.96
2023-01-01T13:09:45.168Z,61.66
2023-01-01T13:12:16.805Z,62.48
2023-01-01T13:14:46.860Z,62.92
2023-01-01T13:17:29.181Z,61.89
2023-01-01T13:19:59.446Z,63.44
2023-01-01T13:22:27.162Z,63.89
2023-01-01T13:25:17.769Z,62.73
2023-01-01T13:28:00.369Z,63.60
2023-01-01T13:30:36.339Z,62.94
2023-01-01T13:33:29.937Z,63.78
2023-01-01T13:36:09.187Z,64.33
2023-01-01T13:38:47.885Z,64.55
2023-01-01T13:41:26.645Z,64.27
2023-01-01T13:44:11.981Z,65.11
2023-01-01T13:46:41.662Z,65.37
2023-01-01T13:49:34.756Z,65.32
2023-01-01T13:52:23.243Z,66.17
2023-01-01T13:55:18.863Z,65.81
2023-01-01T13:58:03.779Z,66.60
2023-01-01T14:00:36.201Z,66.85
2023-01-01T14:03:11.417Z,66.67
2023-01-01T14:05:41.755Z,67.30
2023-01-01T14:08:28.467Z,66.88
2023-01-01T14:10:55.163Z,67.65
2023-01-01T14:13:29.810Z,67.31
2023-01-01T14:16:00.746Z,67.64
2023-01-01T14:18:33.731Z,67.72
2023-01-01T14:21:00.502Z,67.68
2023-01-01T14:23:36.684Z,67.76
2023-01-01T14:26:10.773Z,68.12
2023-01-01T14:28:38.427Z,68.17
2023-01-01T14:31:11.433Z,67.85
2023-01-01T14:33:39.281Z,68.41
2023-01-01T14:36:16.226Z,68.70
2023-01-01T14:38:46.203Z,68.75
2023-01-01T14:41:29.262Z,69.20
2023-01-01T14:44:13.934Z,69.67
2023-01-01T14:46:43.778Z,70.05
2023-01-01T14:49:16.818Z,70.06
2023-01-01T14:51:50.219Z,70.12
2023-01-01T14:54:22.533Z,70.29
2023-01-01T14:56:51.334Z,70.48
2023-01-01T14:59:28.567Z,71.79
2023-01-01T15:02:22.613Z,71.29
2023-01-01T15:04:49.695Z,71.40
2023-01-01T15:07:23.867Z,71.90
2023-01-01T15:09:52.102Z,71.52
2023-01-01T15:12:20.061Z,72.51
2023-01-01T15:14:48.971Z,72.46
2023-01-01T15:17:26.511Z,72.13
2023-01-01T15:20:06.977Z,72.73
2023-01-01T15:22:39.201Z,72.24
2023-01-01T15:25:12.704Z,73.09
2023-01-01T15:27:41.896Z,74.17
2023-01-01T15:30:26.520Z,73.35
2023-01-01T15:32:53.734Z,73.34
2023-01-01T15:35:31.136Z,74.18
2023-01-01T15:38:02.653Z,73.93
2023-01-01T15:40:31.421Z,72.55
2023-01-01T15:42:57.934Z,73.59
2023-01-01T15:45:41.585Z,73.29
2023-01-01T15:48:11.133Z,72.62
2023-01-01T15:50:44.028Z,72.75
2023-01-01T15:53:21.529Z,72.53
2023-01-01T15:55:56.375Z,72.55
2023-01-01T15:58:32.512Z,72.95
2023-01-01T16:01:02.759Z,73.50
2023-01-01T16:03:31.793Z,73.99
2023-01-01T16:05:58.896Z,73.98
2023-01-01T16:08:25.557Z,73.74
2023-01-01T16:10:52.418Z,73.19
2023-01-01T16:13:19.568Z,73.71
2023-01-01T16:18:40.348Z,73.05
2023-01-01T16:21:07.080Z,73.62
2023-01-01T16:23:33.725Z,74.54
2023-01-01T16:26:00.349Z,73.83
2023-01-01T16:28:28.298Z,74.47
2023-01-01T16:30:55.551Z,74.22
2023-01-01T16:33:25.580Z,74.32
2023-01-01T16:35:52.252Z,74.51
2023-01-01T16:38:18.911Z,74.41
2023-01-01T16:40:45.526Z,74.64
2023-01-01T16:43:18.950Z,74.97
2023-01-01T16:45:45.774Z,74.54
2023-01-01T16:48:12.532Z,75.24
2023-01-01T16:50:39.175Z,74.92
2023-01-01T16:53:05.870Z,74.58
2023-01-01T16:55:32.471Z,75.05
2023-01-01T16:58:29.504Z,74.75
2023-01-01T17:00:45.987Z,74.90
2023-01-01T17:03:13.082Z,75.10
2023-01-01T17:05:44.079Z,75.19
2023-01-01T17:08:11.663Z,74.83
2023-01-01T17:10:38.231Z,75.18
2023-01-01T17:13:04.831Z,75.42
2023-01-01T17:15:32.402Z,75.40
2023-01-01T17:17:59.149Z,75.10
2023-01-01T17:20:26.225Z,75.35
2023-01-01T17:22:52.864Z,75.58
2023-01-01T17:25:19.489Z,75.70
2023-01-01T17:27:46.165Z,75.46
2023-01-01T17:30:13.781Z,75.80
2023-01-01T17:32:40.487Z,76.00
2023-01-01T17:35:07.856Z,76.21
2023-01-01T17:37:34.569Z,76.11
2023-01-01T17:40:01.319Z,76.23
2023-01-01T17:42:28.793Z,76.12
2023-01-01T17:44:55.432Z,76.18
2023-01-01T17:47:22.411Z,76.49
2023-01-01T17:49:51.075Z,75.90
2023-01-01T17:52:17.813Z,76.62
2023-01-01T17:54:44.376Z,76.87
2023-01-01T17:57:10.953Z,76.95
2023-01-01T17:59:37.557Z,77.52
2023-01-01T18:02:05.906Z,77.32
2023-01-01T18:04:32.781Z,77.46
2023-01-01T18:07:05.959Z,77.33
2023-01-01T18:09:33.203Z,77.29
2023-01-01T18:11:59.859Z,77.51
2023-01-01T18:14:28.461Z,77.65
2023-01-01T18:16:55.248Z,78.11
2023-01-01T18:19:21.833Z,78.25
2023-01-01T18:21:48.426Z,77.83
2023-01-01T18:24:15.736Z,78.22
2023-01-01T18:26:42.841Z,78.24
2023-01-01T18:29:09.624Z,78.29
2023-01-01T18:31:36.331Z,78.58
2023-01-01T18:34:04.319Z,78.64
2023-01-01T18:36:32.855Z,78.18
2023-01-01T18:39:09.998Z,78.44
2023-01-01T18:41:49.093Z,78.45
2023-01-01T18:44:25.076Z,78.44
2023-01-01T18:46:57.722Z,78.15
2023-01-01T18:49:25.488Z,78.13
2023-01-01T18:51:57.038Z,78.56
2023-01-01T18:54:24.562Z,78.51
2023-01-01T18:57:03.986Z,78.76
2023-01-01T18:59:30.550Z,79.02
2023-01-01T19:01:57.771Z,79.24
2023-01-01T19:04:24.373Z,78.87
2023-01-01T19:06:51.167Z,79.07
2023-01-01T19:09:23.484Z,78.83
2023-01-01T19:11:52.569Z,78.89
2023-01-01T19:14:24.189Z,78.36
2023-01-01T19:16:55.045Z,78.52
2023-01-01T19:19:26.300Z,78.35
2023-01-01T19:22:02.007Z,79.71
2023-01-01T19:24:31.735Z,78.81
2023-01-01T19:27:12.167Z,79.31
2023-01-01T19:29:43.557Z,78.61
2023-01-01T19:32:10.384Z,78.56
2023-01-01T19:34:38.571Z,78.75
2023-01-01T19:37:06.334Z,79.93
2023-01-01T19:39:34.697Z,80.26
2023-01-01T19:42:05.059Z,80.94
2023-01-01T19:44:32.176Z,80.41
2023-01-01T19:47:00.910Z,80.62
2023-01-01T19:49:28.101Z,80.44
2023-01-01T19:51:54.819Z,80.81
2023-01-01T19:54:21.441Z,80.59
2023-01-01T19:56:49.973Z,81.05
2023-01-01T19:59:16.569Z,81.10
2023-01-01T20:01:43.378Z,81.63
2023-01-01T20:04:10.586Z,80.98
2023-01-01T20:06:37.833Z,80.84
2023-01-01T20:09:04.530Z,80.89
2023-01-01T20:11:32.041Z,81.83
2023-01-01T20:13:58.936Z,81.87
2023-01-01T20:16:25.908Z,81.47
2023-01-01T20:18:52.607Z,82.22
2023-01-01T20:21:37.455Z,82.36
2023-01-01T20:24:04.358Z,81.62
2023-01-01T20:26:31.059Z,81.92
2023-01-01T20:29:16.076Z,81.97
2023-01-01T20:31:43.262Z,81.52
2023-01-01T20:34:10.381Z,81.45
2023-01-01T20:36:55.706Z,81.23
2023-01-01T20:39:22.780Z,81.75
2023-01-01T20:41:50.053Z,81.36
2023-01-01T20:44:16.914Z,81.82
2023-01-01T20:46:45.854Z,82.13
2023-01-01T20:49:12.505Z,82.07
2023-01-01T20:51:39.096Z,82.81
2023-01-01T20:54:06.035Z,82.20
2023-01-01T20:56:32.688Z,82.07
2023-01-01T20:59:07.658Z,82.59
2023-01-01T21:01:44.562Z,82.24
2023-01-01T21:04:11.391Z,82.78
2023-01-01T21:06:38.242Z,82.28
2023-01-01T21:09:05.435Z,82.78
2023-01-01T21:11:36.205Z,82.33
2023-01-01T21:14:03.422Z,82.28
2023-01-01T21:16:36.666Z,82.38
2023-01-01T21:19:07.227Z,82.74
2023-01-01T21:21:43.073Z,82.76
2023-01-01T21:24:24.238Z,82.44
2023-01-01T21:26:55.062Z,82.44
2023-01-01T21:29:25.479Z,82.58
2023-01-01T21:31:57.412Z,82.63
2023-01-01T21:34:34.452Z,83.16
2023-01-01T21:37:43.679Z,82.66
2023-01-01T21:41:12.076Z,83.58
2023-01-01T21:43:41.972Z,83.13
2023-01-01T21:46:08.660Z,82.89
2023-01-01T21:48:36.917Z,83.07
2023-01-01T21:51:19.736Z,83.57
2023-01-01T21:53:46.464Z,83.25
2023-01-01T21:56:28.325Z,83.95
2023-01-01T21:59:19.499Z,83.63
2023-01-01T22:01:49.104Z,83.49
2023-01-01T22:04:19.135Z,83.04
2023-01-01T22:06:51.667Z,83.69
2023-01-01T22:09:21.687Z,84.11
2023-01-01T22:11:52.961Z,83.53
2023-01-01T22:14:25.455Z,83.25
2023-01-01T22:16:55.972Z,83.38
2023-01-01T22:19:24.359Z,82.88
2023-01-01T22:21:52.499Z,83.06
2023-01-01T22:24:23.234Z,82.95
2023-01-01T22:26:49.927Z,82.95
2023-01-01T22:29:23.102Z,82.96
2023-01-01T22:32:01.003Z,82.69
2023-01-01T22:34:27.663Z,82.65
2023-01-01T22:36:54.889Z,82.22
2023-01-01T22:39:34.866Z,82.33
2023-01-01T22:42:03.484Z,82.29
2023-01-01T22:44:33.496Z,82.88
2023-01-01T22:47:03.031Z,82.68
2023-01-01T22:49:40.321Z,81.84
2023-01-01T22:52:08.207Z,81.96
2023-01-01T22:54:37.718Z,82.07
2023-01-01T22:57:05.736Z,82.25
2023-01-01T22:59:32.292Z,82.26
2023-01-01T23:02:00.304Z,82.36
2023-01-01T23:04:27.115Z,82.27
2023-01-01T23:06:54.322Z,82.51
2023-01-01T23:09:20.974Z,82.02
2023-01-01T23:11:47.607Z,81.93
2023-01-01T23:14:37.074Z,82.66
2023-01-01T23:17:05.594Z,82.28
2023-01-01T23:19:32.310Z,82.19
2023-01-01T23:22:02.828Z,81.53
2023-01-01T23:24:31.079Z,81.46
2023-01-01T23:26:58.897Z,81.72
2023-01-01T23:29:29.337Z,81.72
2023-01-01T23:31:56.359Z,81.59
2023-01-01T23:34:23.211Z,82.02
2023-01-01T23:36:52.218Z,81.63
2023-01-01T23:39:18.782Z,81.79
2023-01-01T23:41:46.977Z,82.89
2023-01-01T23:44:13.549Z,82.35
2023-01-01T23:46:40.378Z,82.21
2023-01-01T23:49:07.776Z,82.21
2023-01-01T23:51:35.138Z,82.60
2023-01-01T23:54:01.808Z,82.35
2023-01-01T23:56:28.433Z,83.20
2023-01-01T23:58:55.006Z,82.43
